createdAt,value
2019-02-23T00:02:29.267Z,102270.16
2019-02-23T00:04:59.781Z,102278.44
2019-02-23T00:07:30.349Z,102276.23
2019-02-23T00:10:00.986Z,102286.42
2019-02-23T00:12:31.647Z,102290.91
2019-02-23T00:15:02.246Z,102293.77
2019-02-23T00:17:32.702Z,102301.10
2019-02-23T00:20:03.318Z,102305.75
2019-02-23T00:22:33.815Z,102305.30
2019-02-23T00:25:04.327Z,102305.14
2019-02-23T00:27:36.365Z,102313.50
2019-02-23T00:30:07.380Z,102319.32
2019-02-23T00:32:37.711Z,102310.56
2019-02-23T00:35:08.042Z,102316.10
2019-02-23T00:37:38.531Z,102316.67
2019-02-23T00:40:09.089Z,102319.57
2019-02-23T00:42:39.607Z,102315.95
2019-02-23T00:45:10.213Z,102313.02
2019-02-23T00:47:40.622Z,102310.66
2019-02-23T00:50:11.167Z,102312.36
2019-02-23T00:52:41.716Z,102315.63
2019-02-23T00:55:12.187Z,102312.13
2019-02-23T00:57:42.672Z,102317.09
2019-02-23T01:00:14.357Z,102312.20
2019-02-23T01:02:44.765Z,102316.23
2019-02-23T01:05:15.275Z,102313.95
2019-02-23T01:07:45.883Z,102312.25
2019-02-23T01:10:16.341Z,102309.92
2019-02-23T01:12:46.801Z,102312.61
2019-02-23T01:15:17.287Z,102305.64
2019-02-23T01:17:47.637Z,102296.11
2019-02-23T01:20:18.246Z,102308.83
2019-02-23T01:22:49.999Z,102308.91
2019-02-23T01:25:20.555Z,102296.36
2019-02-23T01:27:53.141Z,102306.30
2019-02-23T01:30:23.601Z,102299.34
2019-02-23T01:32:54.415Z,102300.27
2019-02-23T01:35:24.906Z,102304.63
2019-02-23T01:37:55.481Z,102302.02
2019-02-23T01:40:26.076Z,102309.60
2019-02-23T01:42:58.376Z,102310.86
2019-02-23T01:45:28.722Z,102301.37
2019-02-23T01:47:59.246Z,102295.01
2019-02-23T01:50:30.018Z,102305.37
2019-02-23T01:53:00.412Z,102294.02
2019-02-23T01:55:30.997Z,102289.28
2019-02-23T01:58:01.581Z,102279.69
2019-02-23T02:00:32.331Z,102273.91
2019-02-23T02:03:03.001Z,102270.69
2019-02-23T02:05:33.491Z,102259.75
2019-02-23T02:08:04.067Z,102249.49
2019-02-23T02:10:34.642Z,102240.16
2019-02-23T02:13:05.061Z,102238.49
2019-02-23T02:15:35.631Z,102238.25
2019-02-23T02:18:06.066Z,102244.36
2019-02-23T02:20:36.531Z,102250.27
2019-02-23T02:23:07.131Z,102259.59
2019-02-23T02:25:37.584Z,102262.94
2019-02-23T02:28:08.123Z,102271.36
2019-02-23T02:30:38.851Z,102280.47
2019-02-23T02:33:28.329Z,102277.77
2019-02-23T02:35:58.918Z,102269.76
2019-02-23T02:38:29.617Z,102264.96
2019-02-23T02:41:00.194Z,102260.85
2019-02-23T02:43:30.662Z,102257.64
2019-02-23T02:46:01.164Z,102266.27
2019-02-23T02:48:31.571Z,102278.98
2019-02-23T02:51:02.001Z,102273.77
2019-02-23T02:53:32.342Z,102278.36
2019-02-23T02:56:06.404Z,102287.98
2019-02-23T02:58:36.776Z,102285.73
2019-02-23T03:01:07.323Z,102282.11
2019-02-23T03:03:37.778Z,102266.55
2019-02-23T03:06:08.207Z,102282.27
2019-02-23T03:08:38.897Z,102280.77
2019-02-23T03:11:09.265Z,102286.94
2019-02-23T03:13:39.681Z,102293.48
2019-02-23T03:16:10.048Z,102284.92
2019-02-23T03:18:40.451Z,102285.17
2019-02-23T03:21:10.992Z,102279.52
2019-02-23T03:23:41.564Z,102271.55
2019-02-23T03:26:11.997Z,102262.88
2019-02-23T03:28:42.435Z,102256.05
2019-02-23T03:31:12.958Z,102257.31
2019-02-23T03:33:43.393Z,102263.78
2019-02-23T03:36:13.951Z,102252.75
2019-02-23T03:38:44.426Z,102252.10
2019-02-23T03:41:14.896Z,102247.37
2019-02-23T03:43:45.321Z,102225.60
2019-02-23T03:46:15.791Z,102228.53
2019-02-23T03:48:46.203Z,102232.92
2019-02-23T03:51:16.711Z,102228.45
2019-02-23T03:53:47.328Z,102225.77
2019-02-23T03:56:18.003Z,102226.21
2019-02-23T03:58:48.492Z,102230.65
2019-02-23T04:01:19.007Z,102226.95
2019-02-23T04:03:49.546Z,102199.80
2019-02-23T04:06:20.033Z,102198.38
2019-02-23T04:08:50.466Z,102201.22
2019-02-23T04:11:21.004Z,102213.35
2019-02-23T04:13:51.561Z,102207.94
2019-02-23T04:16:21.971Z,102213.70
2019-02-23T04:18:52.406Z,102209.66
2019-02-23T04:21:22.815Z,102201.61
2019-02-23T04:23:55.128Z,102198.80
2019-02-23T04:26:25.269Z,102207.91
2019-02-23T04:28:55.680Z,102215.12
2019-02-23T04:31:26.318Z,102226.16
2019-02-23T04:33:56.748Z,102230.95
2019-02-23T04:36:27.279Z,102235.55
2019-02-23T04:38:57.847Z,102226.56
2019-02-23T04:41:28.206Z,102245.41
2019-02-23T04:43:58.637Z,102251.34
2019-02-23T04:46:29.462Z,102251.63
2019-02-23T04:48:59.907Z,102240.16
2019-02-23T04:51:30.383Z,102219.98
2019-02-23T04:54:00.862Z,102208.14
2019-02-23T04:56:31.224Z,102201.42
2019-02-23T04:59:01.900Z,102203.72
2019-02-23T05:01:32.566Z,102223.63
2019-02-23T05:04:03.045Z,102218.25
2019-02-23T05:06:33.694Z,102211.34
2019-02-23T05:09:04.805Z,102213.91
2019-02-23T05:11:35.273Z,102231.19
2019-02-23T05:14:05.752Z,102237.23
2019-02-23T05:16:36.181Z,102236.48
2019-02-23T05:19:06.595Z,102234.73
2019-02-23T05:21:37.060Z,102239.01
2019-02-23T05:24:07.502Z,102229.41
2019-02-23T05:26:38.101Z,102221.78
2019-02-23T05:29:08.618Z,102215.56
2019-02-23T05:31:39.022Z,102203.69
2019-02-23T05:34:09.852Z,102220.86
2019-02-23T05:36:40.406Z,102219.16
2019-02-23T05:39:11.025Z,102225.47
2019-02-23T05:41:41.397Z,102226.53
2019-02-23T05:44:12.593Z,102237.73
2019-02-23T05:46:43.495Z,102239.31
2019-02-23T05:49:14.089Z,102238.50
2019-02-23T05:51:44.712Z,102235.37
2019-02-23T05:54:15.228Z,102244.69
2019-02-23T05:56:45.819Z,102243.95
2019-02-23T05:59:16.344Z,102243.95
2019-02-23T06:01:46.736Z,102246.12
2019-02-23T06:04:17.833Z,102262.03
2019-02-23T06:06:48.443Z,102268.91
2019-02-23T06:09:18.865Z,102266.11
2019-02-23T06:11:49.444Z,102257.21
2019-02-23T06:14:20.223Z,102254.22
2019-02-23T06:16:51.376Z,102251.34
2019-02-23T06:19:23.138Z,102260.81
2019-02-23T06:21:54.769Z,102276.58
2019-02-23T06:24:26.127Z,102272.64
2019-02-23T06:26:56.964Z,102281.78
2019-02-23T06:29:28.188Z,102295.82
2019-02-23T06:32:00.304Z,102301.66
2019-02-23T06:34:30.929Z,102295.22
2019-02-23T06:37:01.565Z,102301.84
2019-02-23T06:39:32.201Z,102303.34
2019-02-23T06:42:02.891Z,102304.11
2019-02-23T06:44:33.408Z,102316.95
2019-02-23T06:47:04.103Z,102307.21
2019-02-23T06:49:34.491Z,102309.14
2019-02-23T06:52:05.031Z,102320.03
2019-02-23T06:54:35.846Z,102319.47
2019-02-23T06:57:06.539Z,102321.35
2019-02-23T06:59:36.961Z,102312.34
2019-02-23T07:02:07.369Z,102313.47
2019-02-23T07:04:37.987Z,102325.19
2019-02-23T07:07:08.675Z,102321.11
2019-02-23T07:09:39.041Z,102325.14
2019-02-23T07:12:09.451Z,102336.56
2019-02-23T07:14:39.957Z,102337.84
2019-02-23T07:17:10.407Z,102343.38
2019-02-23T07:19:40.981Z,102342.09
2019-02-23T07:22:15.521Z,102341.16
2019-02-23T07:24:44.465Z,102348.00
2019-02-23T07:27:14.964Z,102359.55
2019-02-23T07:29:45.501Z,102364.43
2019-02-23T07:32:16.046Z,102368.75
2019-02-23T07:34:46.505Z,102359.40
2019-02-23T07:37:16.996Z,102355.66
2019-02-23T07:39:47.521Z,102361.44
2019-02-23T07:42:17.955Z,102359.73
2019-02-23T07:44:48.784Z,102356.92
2019-02-23T07:47:19.307Z,102367.44
2019-02-23T07:49:49.876Z,102362.47
2019-02-23T07:52:26.307Z,102353.83
2019-02-23T07:54:52.581Z,102334.13
2019-02-23T07:57:23.181Z,102343.65
2019-02-23T07:59:53.602Z,102344.02
2019-02-23T08:02:25.840Z,102353.86
2019-02-23T08:04:56.577Z,102355.00
2019-02-23T08:07:27.000Z,102349.93
2019-02-23T08:09:57.502Z,102344.30
2019-02-23T08:12:28.336Z,102352.08
2019-02-23T08:14:58.768Z,102368.84
2019-02-23T08:17:29.188Z,102376.61
2019-02-23T08:20:00.038Z,102367.57
2019-02-23T08:22:37.383Z,102370.97
2019-02-23T08:25:02.927Z,102377.09
2019-02-23T08:27:33.476Z,102383.66
2019-02-23T08:30:04.100Z,102394.48
2019-02-23T08:32:34.622Z,102395.36
2019-02-23T08:35:05.302Z,102391.42
2019-02-23T08:37:35.735Z,102371.62
2019-02-23T08:40:06.900Z,102373.20
2019-02-23T08:42:37.600Z,102368.59
2019-02-23T08:45:09.422Z,102379.53
2019-02-23T08:47:40.187Z,102373.84
2019-02-23T08:50:12.524Z,102384.11
2019-02-23T08:52:49.116Z,102378.71
2019-02-23T08:55:15.338Z,102363.41
2019-02-23T08:57:45.839Z,102358.47
2019-02-23T09:00:17.652Z,102364.88
2019-02-23T09:02:48.228Z,102368.00
2019-02-23T09:05:18.724Z,102374.81
2019-02-23T09:07:49.148Z,102373.02
2019-02-23T09:10:19.871Z,102374.11
2019-02-23T09:12:50.574Z,102358.36
2019-02-23T09:15:22.262Z,102360.62
2019-02-23T09:17:53.252Z,102360.52
2019-02-23T09:20:29.084Z,102364.83
2019-02-23T09:23:00.148Z,102349.56
2019-02-23T09:25:28.381Z,102340.12
2019-02-23T09:27:58.848Z,102332.75
2019-02-23T09:30:30.386Z,102328.28
2019-02-23T09:33:01.022Z,102326.34
2019-02-23T09:35:31.743Z,102326.59
2019-02-23T09:38:02.256Z,102319.88
2019-02-23T09:40:32.940Z,102317.50
2019-02-23T09:43:03.442Z,102310.64
2019-02-23T09:45:34.655Z,102303.78
2019-02-23T09:48:05.254Z,102303.47
2019-02-23T09:50:36.429Z,102296.94
2019-02-23T09:53:11.187Z,102299.93
2019-02-23T09:55:39.241Z,102304.02
2019-02-23T09:58:09.692Z,102303.43
2019-02-23T10:00:40.246Z,102306.34
2019-02-23T10:03:10.777Z,102303.66
2019-02-23T10:05:41.310Z,102292.19
2019-02-23T10:08:11.873Z,102304.73
2019-02-23T10:10:42.303Z,102305.08
2019-02-23T10:13:12.792Z,102299.33
2019-02-23T10:15:43.227Z,102299.06
2019-02-23T10:18:13.824Z,102288.00
2019-02-23T10:20:44.282Z,102299.09
2019-02-23T10:23:22.166Z,102299.20
2019-02-23T10:25:47.621Z,102298.12
2019-02-23T10:28:18.526Z,102299.38
2019-02-23T10:31:05.998Z,102308.22
2019-02-23T10:34:44.371Z,102303.10
2019-02-23T10:37:15.290Z,102294.08
2019-02-23T10:39:57.212Z,102300.97
2019-02-23T10:42:31.984Z,102299.47
2019-02-23T10:45:02.656Z,102291.58
2019-02-23T10:47:59.232Z,102285.34
2019-02-23T10:50:51.850Z,102282.27
2019-02-23T10:53:32.388Z,102281.88
2019-02-23T10:55:54.369Z,102284.29
2019-02-23T10:58:24.862Z,102283.04
2019-02-23T11:00:55.391Z,102280.08
2019-02-23T11:03:26.316Z,102274.92
2019-02-23T11:05:57.070Z,102264.52
2019-02-23T11:08:27.661Z,102261.99
2019-02-23T11:10:58.287Z,102260.84
2019-02-23T11:13:29.370Z,102255.44
2019-02-23T11:19:31.961Z,102249.61
2019-02-23T11:22:27.662Z,102260.83
2019-02-23T11:24:53.731Z,102250.75
2019-02-23T11:27:25.060Z,102244.12
2019-02-23T11:29:56.984Z,102226.11
2019-02-23T11:32:27.602Z,102227.70
2019-02-23T11:34:58.099Z,102233.78
2019-02-23T11:37:28.555Z,102228.66
2019-02-23T11:39:59.289Z,102228.96
2019-02-23T11:42:29.981Z,102239.05
2019-02-23T11:45:00.486Z,102237.05
2019-02-23T11:47:30.986Z,102239.17
2019-02-23T11:50:01.519Z,102237.89
2019-02-23T11:52:32.244Z,102233.58
2019-02-23T11:55:02.761Z,102223.94
2019-02-23T11:57:33.415Z,102227.24
2019-02-23T12:00:04.207Z,102223.14
2019-02-23T12:02:34.571Z,102234.48
2019-02-23T12:05:05.267Z,102230.41
2019-02-23T12:07:35.827Z,102231.44
2019-02-23T12:10:08.617Z,102228.46
2019-02-23T12:12:39.155Z,102221.36
2019-02-23T12:15:09.973Z,102223.52
2019-02-23T12:17:40.466Z,102221.47
2019-02-23T12:20:11.196Z,102222.92
2019-02-23T12:22:41.706Z,102234.17
2019-02-23T12:25:15.742Z,102231.24
2019-02-23T12:27:44.551Z,102226.53
2019-02-23T12:30:15.341Z,102223.97
2019-02-23T12:32:46.130Z,102213.51
2019-02-23T12:35:16.727Z,102206.94
2019-02-23T12:37:47.374Z,102198.63
2019-02-23T12:40:18.114Z,102195.17
2019-02-23T12:42:48.632Z,102195.74
2019-02-23T12:45:19.189Z,102197.02
2019-02-23T12:47:51.271Z,102198.64
2019-02-23T12:50:22.687Z,102198.59
2019-02-23T12:52:53.113Z,102193.28
2019-02-23T12:55:23.547Z,102183.53
2019-02-23T12:57:53.957Z,102181.41
2019-02-23T13:00:25.002Z,102183.29
2019-02-23T13:02:55.445Z,102191.53
2019-02-23T13:05:25.999Z,102193.52
2019-02-23T13:07:56.701Z,102194.16
2019-02-23T13:10:27.218Z,102188.45
2019-02-23T13:13:28.601Z,102200.91
2019-02-23T13:16:28.241Z,102196.08
2019-02-23T13:19:45.143Z,102192.22
2019-02-23T13:22:58.231Z,102178.73
2019-02-23T13:25:55.296Z,102187.81
2019-02-23T13:29:16.251Z,102196.83
2019-02-23T13:32:22.479Z,102202.05
2019-02-23T13:35:39.988Z,102197.83
2019-02-23T13:38:39.202Z,102195.22
2019-02-23T13:41:52.198Z,102183.27
2019-02-23T13:45:20.177Z,102174.20
2019-02-23T13:48:39.716Z,102168.25
2019-02-23T13:51:49.687Z,102167.12
2019-02-23T13:55:00.711Z,102165.30
2019-02-23T13:57:58.723Z,102158.06
2019-02-23T14:01:26.694Z,102165.95
2019-02-23T14:04:40.427Z,102178.86
2019-02-23T14:07:43.911Z,102164.91
2019-02-23T14:10:56.292Z,102162.89
2019-02-23T14:13:52.917Z,102158.47
2019-02-23T14:17:07.349Z,102151.33
2019-02-23T14:20:24.450Z,102147.55
2019-02-23T14:23:37.752Z,102154.48
2019-02-23T14:27:05.629Z,102158.14
2019-02-23T14:30:19.330Z,102158.78
2019-02-23T14:33:47.172Z,102153.82
2019-02-23T14:37:06.952Z,102146.02
2019-02-23T14:40:22.934Z,102146.98
2019-02-23T14:43:51.365Z,102145.56
2019-02-23T14:47:04.466Z,102140.62
2019-02-23T14:50:21.125Z,102149.50
2019-02-23T14:53:34.106Z,102154.98
2019-02-23T14:57:02.067Z,102151.50
2019-02-23T15:00:23.826Z,102156.57
2019-02-23T15:03:39.340Z,102151.91
2019-02-23T15:06:38.579Z,102139.23
2019-02-23T15:09:56.105Z,102137.77
2019-02-23T15:13:01.552Z,102119.30
2019-02-23T15:16:17.111Z,102119.73
2019-02-23T15:19:34.993Z,102119.81
2019-02-23T15:22:58.035Z,102114.23
2019-02-23T15:26:04.072Z,102117.84
2019-02-23T15:29:27.444Z,102108.77
2019-02-23T15:32:30.987Z,102097.43
2019-02-23T15:35:52.376Z,102086.75
2019-02-23T15:39:23.113Z,102084.71
2019-02-23T15:42:25.936Z,102090.43
2019-02-23T15:45:54.099Z,102077.91
2019-02-23T15:49:11.262Z,102085.22
2019-02-23T15:51:41.929Z,102085.50
2019-02-23T15:54:12.508Z,102076.79
2019-02-23T15:56:43.161Z,102078.27
2019-02-23T15:59:13.818Z,102075.85
2019-02-23T16:01:45.636Z,102069.48
2019-02-23T16:04:17.481Z,102080.13
2019-02-23T16:06:48.179Z,102087.11
2019-02-23T16:09:18.726Z,102076.17
2019-02-23T16:11:49.317Z,102068.73
2019-02-23T16:14:20.195Z,102082.11
2019-02-23T16:16:50.882Z,102086.76
2019-02-23T16:19:21.696Z,102081.54
2019-02-23T16:21:53.107Z,102062.70
2019-02-23T16:24:23.981Z,102071.44
2019-02-23T16:26:54.778Z,102073.86
2019-02-23T16:29:25.321Z,102067.15
2019-02-23T16:31:57.051Z,102071.94
2019-02-23T16:34:27.601Z,102063.94
2019-02-23T16:36:58.287Z,102067.20
2019-02-23T16:39:28.897Z,102067.55
2019-02-23T16:41:59.541Z,102065.62
2019-02-23T16:44:30.208Z,102064.61
2019-02-23T16:47:00.902Z,102049.77
2019-02-23T16:49:31.571Z,102052.49
2019-02-23T16:52:02.033Z,102053.58
2019-02-23T16:54:32.772Z,102049.80
2019-02-23T16:57:03.295Z,102056.77
2019-02-23T16:59:33.686Z,102047.83
2019-02-23T17:02:04.273Z,102046.34
2019-02-23T17:04:34.717Z,102045.78
2019-02-23T17:07:05.456Z,102054.66
2019-02-23T17:09:36.034Z,102054.70
2019-02-23T17:12:06.685Z,102066.11
2019-02-23T17:14:37.482Z,102067.30
2019-02-23T17:17:08.456Z,102069.41
2019-02-23T17:19:42.019Z,102070.27
2019-02-23T17:22:12.726Z,102065.39
2019-02-23T17:24:43.301Z,102061.83
2019-02-23T17:27:14.532Z,102063.56
2019-02-23T17:29:45.840Z,102059.06
2019-02-23T17:32:16.425Z,102063.94
2019-02-23T17:34:47.115Z,102060.30
2019-02-23T17:37:18.096Z,102066.27
2019-02-23T17:39:48.620Z,102050.40
2019-02-23T17:42:28.170Z,102048.26
2019-02-23T17:44:53.402Z,102044.02
2019-02-23T17:47:24.018Z,102038.78
2019-02-23T17:49:58.587Z,102032.42
2019-02-23T17:52:29.291Z,102034.31
2019-02-23T17:55:00.817Z,102036.38
2019-02-23T17:57:31.461Z,102035.19
2019-02-23T18:00:02.313Z,102036.36
2019-02-23T18:02:35.972Z,102018.00
2019-02-23T18:05:07.018Z,102011.64
2019-02-23T18:07:38.827Z,102000.59
2019-02-23T18:10:09.681Z,101996.41
2019-02-23T18:12:41.406Z,101989.82
2019-02-23T18:15:12.207Z,101985.27
2019-02-23T18:17:42.814Z,101985.48
2019-02-23T18:20:14.306Z,101979.70
2019-02-23T18:22:44.900Z,101976.66
2019-02-23T18:25:15.944Z,101987.69
2019-02-23T18:27:46.537Z,101997.26
2019-02-23T18:30:17.157Z,101990.69
2019-02-23T18:32:47.736Z,102000.61
2019-02-23T18:35:18.445Z,102003.09
2019-02-23T18:37:50.449Z,102004.88
2019-02-23T18:40:21.037Z,101997.88
2019-02-23T18:42:54.492Z,101995.92
2019-02-23T18:45:26.292Z,102001.69
2019-02-23T18:47:59.203Z,102000.81
2019-02-23T18:50:29.996Z,101997.64
2019-02-23T18:53:01.228Z,101999.39
2019-02-23T18:55:40.909Z,102001.35
2019-02-23T18:58:07.397Z,102005.08
2019-02-23T19:00:39.076Z,102012.84
2019-02-23T19:03:12.605Z,102015.28
2019-02-23T19:05:49.828Z,102013.02
2019-02-23T19:08:16.991Z,102006.45
2019-02-23T19:10:47.757Z,102003.42
2019-02-23T19:13:23.775Z,101996.03
2019-02-23T19:15:58.831Z,102003.30
2019-02-23T19:18:29.503Z,101990.60
2019-02-23T19:21:01.116Z,101988.64
2019-02-23T19:23:35.072Z,101984.38
2019-02-23T19:26:05.721Z,101983.55
2019-02-23T19:28:43.245Z,101981.34
2019-02-23T19:31:12.714Z,101966.28
2019-02-23T19:33:47.791Z,101968.59
2019-02-23T19:36:18.543Z,101969.05
2019-02-23T19:38:56.096Z,101966.31
2019-02-23T19:41:26.807Z,101960.80
2019-02-23T19:43:57.512Z,101956.77
2019-02-23T19:46:29.302Z,101960.93
2019-02-23T19:48:59.862Z,101956.57
2019-02-23T19:51:30.831Z,101945.16
2019-02-23T19:54:05.023Z,101943.39
2019-02-23T19:56:37.816Z,101945.47
2019-02-23T19:59:10.451Z,101941.78
2019-02-23T20:01:40.966Z,101942.53
2019-02-23T20:04:11.927Z,101939.77
2019-02-23T20:06:43.967Z,101945.80
2019-02-23T20:09:17.819Z,101939.13
2019-02-23T20:11:51.313Z,101945.36
2019-02-23T20:14:29.141Z,101944.89
2019-02-23T20:17:02.354Z,101955.95
2019-02-23T20:19:35.038Z,101953.44
2019-02-23T20:22:05.767Z,101944.78
2019-02-23T20:24:36.427Z,101955.03
2019-02-23T20:27:07.661Z,101966.59
2019-02-23T20:29:47.913Z,101959.33
2019-02-23T20:32:20.876Z,101971.52
2019-02-23T20:34:52.964Z,101957.72
2019-02-23T20:37:24.637Z,101966.94
2019-02-23T20:39:56.375Z,101960.48
2019-02-23T20:42:32.892Z,101960.71
2019-02-23T20:45:07.320Z,101964.96
2019-02-23T20:47:37.969Z,101972.23
2019-02-23T20:50:14.087Z,101970.41
2019-02-23T20:52:49.447Z,101963.97
2019-02-23T20:55:20.087Z,101957.30
2019-02-23T20:57:51.886Z,101952.83
2019-02-23T21:00:26.996Z,101950.18
2019-02-23T21:03:02.016Z,101959.61
2019-02-23T21:05:35.719Z,101953.50
2019-02-23T21:08:09.767Z,101946.83
2019-02-23T21:10:41.496Z,101942.69
2019-02-23T21:13:17.446Z,101942.80
2019-02-23T21:15:47.999Z,101941.68
2019-02-23T21:18:22.385Z,101940.86
2019-02-23T21:20:53.291Z,101935.80
2019-02-23T21:23:30.083Z,101928.08
2019-02-23T21:26:01.682Z,101927.52
2019-02-23T21:28:32.352Z,101933.04
2019-02-23T21:31:07.802Z,101933.59
2019-02-23T21:33:39.641Z,101934.42
2019-02-23T21:36:10.170Z,101941.31
2019-02-23T21:38:40.571Z,101930.50
2019-02-23T21:41:11.196Z,101933.94
2019-02-23T21:43:41.838Z,101930.73
2019-02-23T21:46:13.958Z,101926.93
2019-02-23T21:48:44.502Z,101931.63
2019-02-23T21:51:15.071Z,101925.63
2019-02-23T21:53:45.626Z,101917.69
2019-02-23T21:56:16.173Z,101918.58
2019-02-23T21:58:47.048Z,101913.87
2019-02-23T22:01:17.616Z,101917.78
2019-02-23T22:03:48.191Z,101914.87
2019-02-23T22:06:18.774Z,101908.08
2019-02-23T22:08:49.365Z,101907.75
2019-02-23T22:11:19.917Z,101913.14
2019-02-23T22:13:50.438Z,101914.85
2019-02-23T22:16:20.870Z,101915.18
2019-02-23T22:18:51.337Z,101919.91
2019-02-23T22:21:21.949Z,101926.03
2019-02-23T22:23:52.564Z,101933.16
2019-02-23T22:26:23.188Z,101928.20
2019-02-23T22:28:53.856Z,101920.59
2019-02-23T22:31:24.324Z,101930.41
2019-02-23T22:33:54.875Z,101932.83
2019-02-23T22:36:25.440Z,101928.80
2019-02-23T22:38:55.886Z,101936.08
2019-02-23T22:41:26.461Z,101932.49
2019-02-23T22:43:56.980Z,101921.75
2019-02-23T22:46:27.519Z,101915.69
2019-02-23T22:48:58.251Z,101900.81
2019-02-23T22:51:28.771Z,101902.47
2019-02-23T22:54:05.479Z,101907.38
2019-02-23T22:56:35.976Z,101901.88
2019-02-23T22:59:06.507Z,101906.48
2019-02-23T23:01:37.130Z,101909.13
2019-02-23T23:04:07.726Z,101906.83
2019-02-23T23:06:38.250Z,101904.17
2019-02-23T23:09:14.833Z,101901.98
2019-02-23T23:11:45.434Z,101899.67
2019-02-23T23:14:16.149Z,101905.11
2019-02-23T23:16:46.826Z,101898.56
2019-02-23T23:19:17.379Z,101891.96
2019-02-23T23:21:47.823Z,101903.03
2019-02-23T23:24:18.364Z,101898.23
2019-02-23T23:26:49.426Z,101892.23
2019-02-23T23:29:20.032Z,101893.28
2019-02-23T23:31:50.521Z,101893.61
2019-02-23T23:34:20.976Z,101906.28
2019-02-23T23:36:51.526Z,101894.55
2019-02-23T23:39:22.163Z,101899.17
2019-02-23T23:41:52.926Z,101884.42
2019-02-23T23:44:23.500Z,101878.20
2019-02-23T23:46:54.097Z,101880.06
2019-02-23T23:49:24.700Z,101858.65
2019-02-23T23:51:55.286Z,101868.33
2019-02-23T23:54:25.715Z,101880.66
2019-02-23T23:56:56.232Z,101870.98
2019-02-23T23:59:26.708Z,101871.66
